Time;durP1;ratioP1;P1;durP2;ratioP2;P2;SDS_P1;SDS_P2;PMS_P1;PMS_P2;Temp;Humidity;BMP_temperature;BMP_pressure;BME280_temperature;BME280_humidity;BME280_pressure;Samples;Min_cycle;Max_cycle;Signal;HPM_P1;HPM_P2
2021/09/22 00:01:03;;;;;;;12.18;6.03;;;14.60;80.50;;;;;;4970404;28;20130;-62
2021/09/22 00:03:30;;;;;;;30.70;7.95;;;14.50;80.30;;;;;;4949619;29;20058;-59
2021/09/22 00:05:57;;;;;;;8.82;5.35;;;14.40;80.40;;;;;;4968635;28;20046;-60
2021/09/22 00:08:24;;;;;;;11.48;6.30;;;14.40;80.30;;;;;;4964077;28;20101;-61
2021/09/22 00:10:51;;;;;;;11.23;6.00;;;14.40;80.90;;;;;;4967740;28;20094;-59
2021/09/22 00:13:17;;;;;;;11.77;6.70;;;14.40;81.10;;;;;;4969032;28;20583;-60
2021/09/22 00:15:44;;;;;;;8.10;5.57;;;14.30;81.00;;;;;;4966285;28;20137;-60
2021/09/22 00:18:11;;;;;;;9.82;5.47;;;14.30;80.90;;;;;;4961409;28;20142;-58
2021/09/22 00:20:38;;;;;;;11.15;6.10;;;14.30;80.90;;;;;;4966607;28;20090;-60
2021/09/22 00:23:05;;;;;;;11.73;5.82;;;14.30;81.20;;;;;;4966864;28;20514;-59
2021/09/22 00:25:34;;;;;;;8.98;6.45;;;14.30;81.40;;;;;;4969764;28;20050;-59
2021/09/22 00:28:01;;;;;;;13.52;6.55;;;14.30;81.50;;;;;;4962140;28;20115;-60
2021/09/22 00:30:28;;;;;;;16.10;6.40;;;14.20;81.40;;;;;;4963703;28;20071;-60
2021/09/22 00:32:55;;;;;;;13.10;8.63;;;14.10;81.40;;;;;;4965900;28;20109;-59
2021/09/22 00:35:23;;;;;;;11.55;6.32;;;14.00;81.40;;;;;;4967635;28;20051;-59
2021/09/22 00:37:49;;;;;;;10.50;5.72;;;13.90;81.70;;;;;;4969625;28;20133;-60
2021/09/22 00:40:16;;;;;;;9.63;5.55;;;13.90;81.80;;;;;;4964755;28;20046;-60
2021/09/22 00:42:43;;;;;;;12.02;7.97;;;13.90;82.10;;;;;;4968167;28;20050;-60
2021/09/22 00:45:12;;;;;;;16.58;7.75;;;14.00;82.50;;;;;;4967204;28;20478;-60
2021/09/22 00:47:39;;;;;;;10.23;6.82;;;14.00;82.50;;;;;;4952219;28;20050;-61
2021/09/22 00:50:06;;;;;;;9.98;7.32;;;14.00;82.50;;;;;;4966212;28;20051;-60
2021/09/22 00:52:34;;;;;;;9.10;6.10;;;14.00;82.50;;;;;;4625412;28;9999644;-61
2021/09/22 00:55:01;;;;;;;10.85;6.80;;;14.00;82.10;;;;;;4964090;28;20189;-60
2021/09/22 00:57:28;;;;;;;9.00;5.55;;;13.90;82.00;;;;;;4953241;28;20569;-59
2021/09/22 00:59:55;;;;;;;8.77;6.15;;;13.90;82.10;;;;;;4951371;28;20086;-59
2021/09/22 01:02:21;;;;;;;13.10;6.45;;;13.90;82.30;;;;;;4961851;28;20145;-61
2021/09/22 01:04:49;;;;;;;10.75;6.25;;;13.90;82.40;;;;;;4965027;28;20051;-61
2021/09/22 01:07:16;;;;;;;12.77;5.35;;;13.90;82.20;;;;;;4969769;28;20759;-60
2021/09/22 01:09:43;;;;;;;13.40;6.80;;;14.00;82.20;;;;;;4937259;28;20137;-60
2021/09/22 01:12:10;;;;;;;10.05;6.53;;;13.90;82.40;;;;;;4956027;28;20102;-60
2021/09/22 01:14:36;;;;;;;12.63;6.53;;;13.90;82.50;;;;;;4948271;28;20126;-59
2021/09/22 01:17:03;;;;;;;12.73;6.47;;;13.90;82.60;;;;;;4966065;28;20050;-60
2021/09/22 01:19:30;;;;;;;12.05;6.90;;;13.90;82.50;;;;;;4966103;28;20059;-60
2021/09/22 01:21:57;;;;;;;12.45;5.80;;;13.90;82.60;;;;;;4969930;28;20122;-58
2021/09/22 01:24:24;;;;;;;11.32;6.25;;;13.90;82.80;;;;;;4951830;28;20054;-59
2021/09/22 01:26:51;;;;;;;10.18;6.10;;;13.80;82.70;;;;;;4965585;28;20320;-60
2021/09/22 01:29:18;;;;;;;13.00;6.22;;;13.70;82.60;;;;;;4967981;28;20106;-60
2021/09/22 01:31:45;;;;;;;12.93;7.47;;;13.70;82.60;;;;;;4969038;28;20047;-60
2021/09/22 01:34:12;;;;;;;12.00;6.53;;;13.70;82.80;;;;;;4968727;28;20077;-60
2021/09/22 01:36:39;;;;;;;12.20;6.45;;;13.70;82.80;;;;;;4965322;28;20086;-60
2021/09/22 01:39:06;;;;;;;11.32;6.32;;;13.70;82.70;;;;;;4969388;28;20080;-60
2021/09/22 01:41:33;;;;;;;11.52;6.10;;;13.70;82.70;;;;;;4967539;28;20509;-60
2021/09/22 01:44:00;;;;;;;11.57;5.40;;;13.60;82.50;;;;;;4963636;28;20141;-60
2021/09/22 01:46:26;;;;;;;9.40;5.18;;;13.60;82.50;;;;;;4966808;28;20043;-61
2021/09/22 01:48:53;;;;;;;7.97;5.43;;;13.50;82.50;;;;;;4947348;28;20066;-61
2021/09/22 01:51:20;;;;;;;8.70;5.32;;;13.40;82.40;;;;;;4964248;28;20113;-61
2021/09/22 01:53:47;;;;;;;7.00;5.13;;;13.30;82.60;;;;;;4968106;28;20085;-61
2021/09/22 01:56:13;;;;;;;9.77;5.57;;;13.30;82.70;;;;;;4964143;28;20113;-60
2021/09/22 01:58:40;;;;;;;13.00;5.47;;;13.30;82.60;;;;;;4951441;28;20050;-59
2021/09/22 02:01:09;;;;;;;13.68;7.13;;;13.20;82.70;;;;;;4964724;28;20067;-60
2021/09/22 02:03:37;;;;;;;8.55;4.72;;;13.20;83.00;;;;;;4968500;28;20050;-60
2021/09/22 02:06:04;;;;;;;7.55;4.88;;;13.20;83.10;;;;;;4964289;28;20054;-60
2021/09/22 02:08:31;;;;;;;10.25;5.57;;;13.10;83.30;;;;;;4968207;28;20046;-60
2021/09/22 02:10:59;;;;;;;11.20;5.55;;;13.10;83.40;;;;;;4946777;28;20458;-57
2021/09/22 02:13:25;;;;;;;9.27;4.97;;;13.10;83.70;;;;;;4965403;28;20733;-60
2021/09/22 02:15:52;;;;;;;8.45;5.15;;;13.20;83.60;;;;;;4949162;28;20051;-61
2021/09/22 02:18:19;;;;;;;8.02;4.45;;;13.10;83.40;;;;;;4966298;28;20046;-61
2021/09/22 02:20:46;;;;;;;9.73;5.80;;;13.10;83.30;;;;;;4959944;28;20558;-60
2021/09/22 02:23:12;;;;;;;11.98;5.10;;;13.10;83.40;;;;;;4963324;28;20269;-61
2021/09/22 02:25:39;;;;;;;10.15;4.55;;;13.10;83.30;;;;;;4967812;28;20090;-60
2021/09/22 02:28:06;;;;;;;8.77;4.93;;;13.10;83.00;;;;;;4964135;28;20051;-59
2021/09/22 02:30:33;;;;;;;10.60;6.07;;;13.10;83.10;;;;;;4966265;28;20453;-60
2021/09/22 02:33:00;;;;;;;15.43;6.68;;;13.10;83.20;;;;;;4961774;28;20125;-60
2021/09/22 02:35:27;;;;;;;9.40;5.47;;;13.20;83.20;;;;;;4967672;28;20074;-59
2021/09/22 02:37:53;;;;;;;10.23;5.95;;;13.20;82.90;;;;;;4966590;28;20090;-60
2021/09/22 02:40:20;;;;;;;9.45;5.68;;;13.20;83.10;;;;;;4947501;28;20051;-60
2021/09/22 02:42:47;;;;;;;7.32;4.78;;;13.20;83.10;;;;;;4965814;28;20059;-60
2021/09/22 02:45:14;;;;;;;9.23;5.07;;;13.10;82.70;;;;;;4967858;28;20046;-59
2021/09/22 02:47:41;;;;;;;7.95;4.88;;;13.10;82.50;;;;;;4961761;28;20130;-59
2021/09/22 02:50:08;;;;;;;12.30;5.30;;;13.00;82.70;;;;;;4965230;28;20109;-59
2021/09/22 02:52:35;;;;;;;7.95;5.22;;;13.00;83.10;;;;;;4966036;28;20082;-60
2021/09/22 02:55:01;;;;;;;12.50;5.50;;;13.00;83.20;;;;;;4950657;28;20459;-60
2021/09/22 02:57:28;;;;;;;11.43;4.82;;;13.00;83.10;;;;;;4950183;28;20043;-60
2021/09/22 02:59:55;;;;;;;8.13;5.20;;;12.90;83.00;;;;;;4964641;28;20129;-60
2021/09/22 03:02:22;;;;;;;14.20;4.80;;;12.90;83.10;;;;;;4950051;28;20098;-60
2021/09/22 03:04:49;;;;;;;9.30;4.80;;;13.00;83.50;;;;;;4947279;28;20106;-59
2021/09/22 03:07:16;;;;;;;10.77;6.20;;;13.00;83.50;;;;;;4966732;28;20038;-61
2021/09/22 03:09:43;;;;;;;11.70;4.60;;;13.00;83.30;;;;;;4961787;28;20133;-60
2021/09/22 03:12:10;;;;;;;10.40;4.47;;;13.00;83.10;;;;;;4968763;28;20043;-60
2021/09/22 03:14:37;;;;;;;7.85;4.53;;;12.90;83.80;;;;;;4961503;28;20062;-60
2021/09/22 03:17:03;;;;;;;8.23;4.90;;;12.80;83.40;;;;;;4963303;28;20572;-61
2021/09/22 03:19:30;;;;;;;9.60;4.72;;;12.80;83.40;;;;;;4964671;28;20055;-61
2021/09/22 03:21:57;;;;;;;13.15;6.57;;;12.80;83.60;;;;;;4967244;28;20051;-59
2021/09/22 03:24:24;;;;;;;9.68;5.53;;;12.80;83.70;;;;;;4962909;28;20474;-60
2021/09/22 03:26:51;;;;;;;8.88;4.28;;;12.80;83.90;;;;;;4961064;28;20098;-59
2021/09/22 03:29:17;;;;;;;6.50;4.70;;;12.80;83.60;;;;;;4948344;28;20074;-59
2021/09/22 03:31:44;;;;;;;8.18;5.03;;;12.80;83.60;;;;;;4932906;28;20114;-60
2021/09/22 03:34:11;;;;;;;12.75;5.40;;;12.80;83.90;;;;;;4950019;28;20121;-60
2021/09/22 03:36:38;;;;;;;10.07;6.05;;;12.80;84.00;;;;;;4950347;28;20051;-60
2021/09/22 03:39:05;;;;;;;8.05;5.40;;;12.80;84.00;;;;;;4946222;29;20066;-61
2021/09/22 03:41:31;;;;;;;8.75;5.25;;;12.80;83.90;;;;;;4948215;29;20070;-60
2021/09/22 03:43:58;;;;;;;8.32;5.05;;;12.80;83.70;;;;;;4947247;28;20138;-59
2021/09/22 03:46:25;;;;;;;9.88;5.15;;;12.70;83.60;;;;;;4946651;28;20054;-59
2021/09/22 03:48:52;;;;;;;7.88;4.85;;;12.70;83.70;;;;;;4945317;29;20075;-59
2021/09/22 03:51:18;;;;;;;22.00;5.82;;;12.70;83.80;;;;;;4947212;28;20083;-59
2021/09/22 03:53:45;;;;;;;13.15;6.30;;;12.70;84.00;;;;;;4951339;28;20043;-59
2021/09/22 03:56:12;;;;;;;7.03;4.97;;;12.70;83.90;;;;;;4938517;28;20048;-60
2021/09/22 03:58:39;;;;;;;10.43;5.30;;;12.70;83.50;;;;;;4927711;29;20142;-59
2021/09/22 04:01:05;;;;;;;10.95;4.93;;;12.70;83.40;;;;;;4945971;29;20152;-60
2021/09/22 04:03:33;;;;;;;5.90;4.32;;;12.60;83.70;;;;;;4946952;28;20154;-60
2021/09/22 04:06:00;;;;;;;6.97;4.43;;;12.60;83.80;;;;;;4950323;28;20462;-60
2021/09/22 04:08:27;;;;;;;7.93;4.25;;;12.60;83.90;;;;;;4947645;28;20126;-60
2021/09/22 04:10:53;;;;;;;9.10;4.35;;;12.50;83.20;;;;;;4934692;29;20047;-60
2021/09/22 04:13:20;;;;;;;6.53;4.55;;;12.50;83.30;;;;;;4947683;29;20047;-60
2021/09/22 04:15:47;;;;;;;11.00;4.97;;;12.40;83.60;;;;;;4946547;28;20059;-60
2021/09/22 04:18:14;;;;;;;8.05;5.28;;;12.40;83.80;;;;;;4952914;28;20050;-59
2021/09/22 04:20:40;;;;;;;14.55;4.00;;;12.40;83.90;;;;;;4948787;28;20083;-58
2021/09/22 04:23:07;;;;;;;6.10;4.30;;;12.40;83.50;;;;;;4947454;29;20150;-60
2021/09/22 04:25:34;;;;;;;7.15;3.90;;;12.30;83.30;;;;;;4943697;29;20147;-60
2021/09/22 04:28:01;;;;;;;8.20;4.18;;;12.20;83.40;;;;;;4959352;28;20147;-60
2021/09/22 04:30:27;;;;;;;7.57;4.78;;;12.20;83.50;;;;;;4947189;28;20489;-60
2021/09/22 04:32:54;;;;;;;9.90;5.15;;;12.20;83.80;;;;;;4962529;28;20406;-60
2021/09/22 04:35:21;;;;;;;7.07;4.57;;;12.20;83.90;;;;;;4943130;28;20129;-60
2021/09/22 04:37:48;;;;;;;6.22;3.90;;;12.20;83.80;;;;;;4948763;28;20565;-60
2021/09/22 04:40:15;;;;;;;5.43;3.97;;;12.20;83.40;;;;;;4959245;28;20680;-60
2021/09/22 04:42:42;;;;;;;7.85;4.45;;;12.20;83.20;;;;;;4950926;28;20044;-60
2021/09/22 04:45:09;;;;;;;6.85;3.83;;;12.00;83.30;;;;;;4958872;28;20079;-61
2021/09/22 04:47:36;;;;;;;10.02;4.85;;;12.00;83.40;;;;;;4944066;28;20043;-61
2021/09/22 04:50:04;;;;;;;6.53;3.88;;;12.00;83.60;;;;;;4959308;28;20047;-60
2021/09/22 04:52:31;;;;;;;9.25;4.50;;;11.90;83.70;;;;;;4954729;28;20153;-60
2021/09/22 04:54:58;;;;;;;10.65;4.65;;;11.90;83.80;;;;;;4959614;28;20067;-60
2021/09/22 04:57:25;;;;;;;13.25;4.80;;;11.90;84.10;;;;;;4958571;28;20129;-60
2021/09/22 04:59:51;;;;;;;15.40;4.65;;;12.00;84.10;;;;;;4953022;28;20093;-62
2021/09/22 05:02:18;;;;;;;8.85;4.15;;;12.00;84.10;;;;;;4961435;28;20121;-60
2021/09/22 05:04:46;;;;;;;8.50;4.30;;;11.90;84.00;;;;;;4961553;28;20117;-60
2021/09/22 05:07:13;;;;;;;20.73;5.38;;;11.90;83.80;;;;;;4954432;28;20133;-60
2021/09/22 05:09:39;;;;;;;7.75;4.13;;;11.90;83.80;;;;;;4961869;28;20414;-60
2021/09/22 05:12:06;;;;;;;9.45;4.35;;;11.90;83.80;;;;;;4953362;28;20107;-59
2021/09/22 05:14:33;;;;;;;9.60;4.20;;;11.90;84.30;;;;;;4959846;28;20090;-60
2021/09/22 05:17:00;;;;;;;10.93;4.20;;;11.80;83.60;;;;;;4933625;28;20119;-60
2021/09/22 05:19:27;;;;;;;7.00;4.20;;;11.80;83.70;;;;;;4952542;28;20185;-60
2021/09/22 05:21:54;;;;;;;8.30;4.72;;;11.80;83.80;;;;;;4954715;28;20083;-60
2021/09/22 05:24:21;;;;;;;8.00;4.55;;;11.80;83.90;;;;;;4949719;29;20146;-61
2021/09/22 05:26:48;;;;;;;12.82;4.78;;;11.70;83.90;;;;;;4955013;28;20484;-60
2021/09/22 05:29:14;;;;;;;7.90;3.70;;;11.70;84.10;;;;;;4959481;28;20094;-60
2021/09/22 05:31:42;;;;;;;10.68;4.13;;;11.70;83.80;;;;;;4952207;28;20047;-60
2021/09/22 05:34:10;;;;;;;7.35;3.90;;;11.70;83.90;;;;;;4950712;28;20194;-60
2021/09/22 05:36:37;;;;;;;5.82;3.92;;;11.60;84.00;;;;;;4974540;28;20105;-60
2021/09/22 05:39:04;;;;;;;10.70;4.47;;;11.60;84.10;;;;;;4971048;28;20126;-60
2021/09/22 05:41:31;;;;;;;9.27;4.38;;;11.60;84.90;;;;;;4971812;28;20070;-60
2021/09/22 05:43:58;;;;;;;10.90;4.53;;;11.60;84.50;;;;;;4973715;28;20078;-59
2021/09/22 05:46:25;;;;;;;10.15;4.75;;;11.70;84.40;;;;;;4972509;28;20442;-59
2021/09/22 05:48:52;;;;;;;6.88;3.92;;;11.70;84.20;;;;;;4962785;28;20047;-59
2021/09/22 05:51:18;;;;;;;7.70;4.30;;;11.60;84.00;;;;;;4969048;28;20126;-59
2021/09/22 05:53:45;;;;;;;9.50;4.28;;;11.60;84.10;;;;;;4964201;28;20074;-59
2021/09/22 05:56:12;;;;;;;8.93;4.47;;;11.60;84.30;;;;;;4968587;28;20053;-59
2021/09/22 05:58:39;;;;;;;9.00;5.57;;;11.60;84.50;;;;;;4964058;28;20047;-59
2021/09/22 06:01:06;;;;;;;7.97;4.60;;;11.60;84.40;;;;;;4949253;28;20081;-60
2021/09/22 06:03:34;;;;;;;9.52;4.57;;;11.60;84.30;;;;;;4967174;28;20146;-60
2021/09/22 06:06:01;;;;;;;9.88;4.60;;;11.60;84.20;;;;;;4962439;28;20047;-60
2021/09/22 06:08:28;;;;;;;6.10;4.43;;;11.60;84.00;;;;;;4948895;28;20051;-60
2021/09/22 06:10:55;;;;;;;11.00;3.88;;;11.60;84.20;;;;;;4965197;28;20459;-60
2021/09/22 06:13:22;;;;;;;6.68;3.92;;;11.70;84.10;;;;;;4968039;28;20058;-60
2021/09/22 06:15:51;;;;;;;12.05;5.07;;;11.60;84.00;;;;;;4961319;28;20130;-59
2021/09/22 06:18:18;;;;;;;8.00;4.65;;;11.60;84.40;;;;;;4947858;28;20456;-60
2021/09/22 06:20:45;;;;;;;6.95;4.78;;;11.60;84.40;;;;;;4963782;28;20059;-60
2021/09/22 06:23:12;;;;;;;10.52;5.13;;;11.70;84.70;;;;;;4955496;28;20109;-60
2021/09/22 06:25:44;;;;;;;6.72;4.60;;;11.70;84.60;;;;;;4624750;28;10000590;-60
2021/09/22 06:28:11;;;;;;;10.48;5.22;;;11.70;84.60;;;;;;4970708;28;20337;-61
2021/09/22 06:30:37;;;;;;;10.40;4.95;;;11.70;84.50;;;;;;4965426;28;20057;-58
2021/09/22 06:33:04;;;;;;;8.38;5.22;;;11.80;84.60;;;;;;4964215;28;20050;-59
2021/09/22 06:35:31;;;;;;;8.55;5.07;;;11.80;84.50;;;;;;4948113;28;20057;-57
2021/09/22 06:37:58;;;;;;;7.90;3.97;;;11.80;84.50;;;;;;4959745;28;20061;-58
2021/09/22 06:40:25;;;;;;;8.38;4.97;;;11.90;84.60;;;;;;4962056;28;20054;-59
2021/09/22 06:42:52;;;;;;;11.00;4.57;;;12.00;84.60;;;;;;4960128;28;20566;-58
2021/09/22 06:45:20;;;;;;;9.75;5.60;;;12.10;84.40;;;;;;4960505;28;20038;-59
2021/09/22 06:47:48;;;;;;;12.93;5.68;;;12.30;84.70;;;;;;4957974;28;20271;-57
2021/09/22 06:50:15;;;;;;;15.93;6.30;;;12.20;85.00;;;;;;4967704;28;20106;-58
2021/09/22 06:52:42;;;;;;;10.90;5.32;;;12.30;85.20;;;;;;4956120;28;20687;-59
2021/09/22 06:55:10;;;;;;;12.30;7.43;;;12.40;85.40;;;;;;4965356;28;20047;-59
2021/09/22 06:57:37;;;;;;;14.85;6.50;;;12.50;85.60;;;;;;4961186;28;20051;-59
2021/09/22 07:00:10;;;;;;;11.25;6.45;;;12.50;85.50;;;;;;4962936;28;20133;-59
2021/09/22 07:02:37;;;;;;;11.07;6.80;;;12.60;85.60;;;;;;4963586;28;20050;-59
2021/09/22 07:05:08;;;;;;;10.40;6.57;;;12.70;85.60;;;;;;4963274;28;20141;-59
2021/09/22 07:07:35;;;;;;;20.25;7.35;;;12.80;86.00;;;;;;4962914;28;20104;-58
2021/09/22 07:10:03;;;;;;;13.65;7.18;;;12.80;85.70;;;;;;4946268;28;20089;-59
2021/09/22 07:12:31;;;;;;;10.23;7.00;;;12.90;85.90;;;;;;4961373;28;20498;-57
2021/09/22 07:14:58;;;;;;;16.85;7.60;;;13.00;86.00;;;;;;4963842;28;20138;-58
2021/09/22 07:17:25;;;;;;;11.50;7.03;;;13.10;86.00;;;;;;4959447;28;20984;-59
2021/09/22 07:19:52;;;;;;;16.88;6.57;;;13.10;86.10;;;;;;4955319;28;20082;-57
2021/09/22 07:22:19;;;;;;;14.27;7.35;;;13.20;86.00;;;;;;4960909;28;20050;-60
2021/09/22 07:24:47;;;;;;;9.00;6.38;;;13.30;86.10;;;;;;4956130;28;20050;-59
2021/09/22 07:27:14;;;;;;;9.32;6.13;;;13.40;86.10;;;;;;4958135;28;20148;-59
2021/09/22 07:29:41;;;;;;;12.65;7.68;;;13.50;86.00;;;;;;4946348;28;20105;-60
2021/09/22 07:32:08;;;;;;;11.00;7.05;;;13.60;86.20;;;;;;4959811;28;20055;-59
2021/09/22 07:34:38;;;;;;;12.55;6.43;;;13.60;86.00;;;;;;4946758;28;20054;-59
2021/09/22 07:37:10;;;;;;;14.10;7.05;;;13.70;85.90;;;;;;4959033;28;20053;-59
2021/09/22 07:39:38;;;;;;;12.50;7.88;;;13.80;86.00;;;;;;4958370;28;20090;-59
2021/09/22 07:42:06;;;;;;;13.45;6.65;;;13.90;85.90;;;;;;4963423;28;20486;-59
2021/09/22 07:44:33;;;;;;;14.43;7.15;;;13.90;85.90;;;;;;4962724;28;20105;-59
2021/09/22 07:47:00;;;;;;;12.55;6.95;;;14.00;85.80;;;;;;4962405;28;20054;-59
2021/09/22 07:49:26;;;;;;;15.15;8.23;;;14.10;85.80;;;;;;4961624;28;20082;-59
2021/09/22 07:51:53;;;;;;;10.00;7.10;;;14.10;85.80;;;;;;4963774;28;20055;-59
2021/09/22 07:54:20;;;;;;;14.32;8.02;;;14.20;85.90;;;;;;4962461;28;20042;-59
2021/09/22 07:56:47;;;;;;;14.10;7.53;;;14.30;86.00;;;;;;4966151;28;20134;-59
2021/09/22 07:59:14;;;;;;;17.25;8.15;;;14.40;86.00;;;;;;4957143;28;20095;-59
2021/09/22 08:01:41;;;;;;;13.65;6.85;;;14.50;86.00;;;;;;4964029;28;20051;-58
2021/09/22 08:04:08;;;;;;;16.48;7.47;;;14.60;85.80;;;;;;4958677;28;20518;-59
2021/09/22 08:06:35;;;;;;;16.23;6.85;;;14.70;85.60;;;;;;4965010;28;20060;-59
2021/09/22 08:09:02;;;;;;;11.68;5.90;;;14.80;85.50;;;;;;4960397;28;20078;-59
2021/09/22 08:11:29;;;;;;;14.35;6.60;;;14.90;85.30;;;;;;4964595;28;20091;-58
2021/09/22 08:13:55;;;;;;;14.18;5.90;;;15.00;85.00;;;;;;4964918;28;20047;-59
2021/09/22 08:16:22;;;;;;;9.23;5.82;;;15.10;84.70;;;;;;4970452;28;20142;-61
2021/09/22 08:18:50;;;;;;;10.07;5.70;;;15.20;84.70;;;;;;4948497;28;20046;-58
2021/09/22 08:21:16;;;;;;;12.23;6.38;;;15.20;84.50;;;;;;4963484;28;20046;-58
2021/09/22 08:23:43;;;;;;;13.02;6.28;;;15.30;84.40;;;;;;4952456;28;20102;-59
2021/09/22 08:26:10;;;;;;;14.98;6.90;;;15.40;84.30;;;;;;4969602;28;20487;-58
2021/09/22 08:28:37;;;;;;;15.57;8.38;;;15.50;84.10;;;;;;4967914;28;20047;-59
2021/09/22 08:31:04;;;;;;;10.45;4.97;;;15.50;83.60;;;;;;4964748;28;20098;-58
2021/09/22 08:33:31;;;;;;;13.88;5.57;;;15.60;83.20;;;;;;4965638;28;20077;-58
2021/09/22 08:35:57;;;;;;;10.48;4.47;;;15.70;82.70;;;;;;4965332;28;20062;-58
2021/09/22 08:38:24;;;;;;;12.70;4.53;;;15.80;82.20;;;;;;4961520;28;20698;-59
2021/09/22 08:40:52;;;;;;;12.77;4.93;;;15.90;81.70;;;;;;4960406;28;20140;-58
2021/09/22 08:43:26;;;;;;;10.13;5.18;;;16.00;81.10;;;;;;4969960;28;20146;-59
2021/09/22 08:45:53;;;;;;;11.00;3.65;;;16.10;79.40;;;;;;4949452;28;20051;-58
2021/09/22 08:48:19;;;;;;;8.23;3.10;;;16.20;80.10;;;;;;4962034;28;20137;-59
2021/09/22 08:50:46;;;;;;;9.57;3.72;;;16.30;79.60;;;;;;4955633;28;20482;-60
2021/09/22 08:53:13;;;;;;;9.57;3.72;;;16.40;79.80;;;;;;4981558;28;20159;-58
2021/09/22 08:55:40;;;;;;;9.00;4.22;;;16.50;79.00;;;;;;4969257;28;20079;-58
2021/09/22 08:58:07;;;;;;;7.47;3.70;;;16.50;79.30;;;;;;4969925;28;20051;-59
2021/09/22 09:00:33;;;;;;;10.90;3.55;;;16.60;79.10;;;;;;4964978;28;20549;-59
2021/09/22 09:03:00;;;;;;;7.25;2.95;;;16.70;78.30;;;;;;4952487;28;20057;-58
2021/09/22 09:05:28;;;;;;;10.52;3.65;;;17.10;77.60;;;;;;4950415;28;20047;-59
2021/09/22 09:07:59;;;;;;;5.63;3.25;;;17.40;76.50;;;;;;4969211;28;20070;-59
2021/09/22 09:10:30;;;;;;;12.15;2.92;;;17.50;75.70;;;;;;4967810;28;20138;-60
2021/09/22 09:13:08;;;;;;;7.32;2.38;;;17.70;74.70;;;;;;4963904;28;20153;-58
2021/09/22 09:15:37;;;;;;;10.00;3.53;;;18.00;72.40;;;;;;4959476;28;20110;-59
2021/09/22 09:18:18;;;;;;;9.73;3.05;;;18.10;74.60;;;;;;4964462;28;20573;-61
2021/09/22 09:20:52;;;;;;;12.80;3.60;;;18.30;71.90;;;;;;4966661;28;20047;-58
2021/09/22 09:23:20;;;;;;;7.80;3.80;;;18.30;69.20;;;;;;4966913;28;20117;-58
2021/09/22 09:26:02;;;;;;;4.95;3.10;;;18.20;71.50;;;;;;4967221;28;20043;-59
2021/09/22 09:28:33;;;;;;;12.32;5.07;;;18.40;71.10;;;;;;4966194;28;20051;-59
2021/09/22 09:31:05;;;;;;;11.35;4.20;;;18.60;72.40;;;;;;4965210;28;20078;-59
2021/09/22 09:33:44;;;;;;;9.18;4.13;;;18.70;72.30;;;;;;4960581;28;20042;-59
2021/09/22 09:36:26;;;;;;;11.15;3.47;;;18.40;71.60;;;;;;4962581;28;21034;-59
2021/09/22 09:39:23;;;;;;;8.73;3.33;;;18.30;69.90;;;;;;4964805;28;20046;-58
2021/09/22 09:41:52;;;;;;;7.05;3.03;;;18.20;70.90;;;;;;4954423;28;20081;-58
2021/09/22 09:44:30;;;;;;;7.75;3.83;;;18.20;72.10;;;;;;4977452;28;20117;-58
2021/09/22 09:47:09;;;;;;;5.70;2.47;;;18.30;72.20;;;;;;4961573;28;20046;-58
2021/09/22 09:49:37;;;;;;;7.57;3.60;;;18.30;68.20;;;;;;4967813;28;20050;-58
2021/09/22 09:52:04;;;;;;;11.70;3.60;;;18.30;70.80;;;;;;4966374;28;20072;-59
2021/09/22 09:54:33;;;;;;;4.63;2.58;;;18.30;71.30;;;;;;4963455;28;20051;-59
2021/09/22 09:57:16;;;;;;;6.60;2.15;;;18.20;69.40;;;;;;4965195;28;20035;-58
2021/09/22 09:59:51;;;;;;;8.07;2.70;;;18.30;68.70;;;;;;4968116;28;20137;-59
2021/09/22 10:02:28;;;;;;;5.82;2.92;;;18.30;69.60;;;;;;4965838;28;20713;-59
2021/09/22 10:04:56;;;;;;;8.93;2.60;;;18.40;69.00;;;;;;4948155;28;20047;-59
2021/09/22 10:07:23;;;;;;;2.20;1.70;;;18.40;68.70;;;;;;4960678;28;20113;-58
2021/09/22 10:09:51;;;;;;;9.65;2.25;;;18.50;70.00;;;;;;4966051;28;20129;-59
2021/09/22 10:12:19;;;;;;;5.65;2.03;;;18.50;69.10;;;;;;4967357;28;20096;-58
2021/09/22 10:14:46;;;;;;;4.43;2.13;;;18.50;66.00;;;;;;4966292;28;20133;-59
2021/09/22 10:17:17;;;;;;;7.03;2.13;;;18.60;69.60;;;;;;4963723;28;20067;-58
2021/09/22 10:19:47;;;;;;;5.53;2.20;;;18.60;69.00;;;;;;4950487;28;20089;-60
2021/09/22 10:22:14;;;;;;;5.00;2.67;;;18.60;67.80;;;;;;4950145;28;20510;-59
2021/09/22 10:24:44;;;;;;;6.22;2.47;;;18.70;66.90;;;;;;4943238;28;20419;-59
2021/09/22 10:27:14;;;;;;;4.32;2.13;;;18.70;67.90;;;;;;4945958;28;20403;-59
2021/09/22 10:30:00;;;;;;;5.55;2.00;;;18.70;68.50;;;;;;4956902;28;20391;-64
2021/09/22 10:32:40;;;;;;;7.45;2.30;;;18.80;66.80;;;;;;4953030;28;20126;-59
2021/09/22 10:35:27;;;;;;;6.32;2.30;;;18.90;67.90;;;;;;4944427;28;20499;-59
2021/09/22 10:37:59;;;;;;;7.90;2.53;;;19.00;65.90;;;;;;4944024;28;20056;-59
2021/09/22 10:40:35;;;;;;;6.15;2.25;;;19.00;67.50;;;;;;4939000;28;20062;-59
2021/09/22 10:43:14;;;;;;;5.40;2.00;;;19.00;65.10;;;;;;4958614;28;20126;-59
2021/09/22 10:45:44;;;;;;;4.82;2.08;;;19.10;64.80;;;;;;4959127;28;20058;-60
2021/09/22 10:48:19;;;;;;;6.32;2.50;;;19.00;67.10;;;;;;4949760;28;20069;-60
2021/09/22 10:50:51;;;;;;;5.07;2.13;;;19.10;65.90;;;;;;4949144;28;20134;-59
2021/09/22 10:56:16;;;;;;;7.68;2.35;;;19.20;65.10;;;;;;4952550;28;20047;-59
2021/09/22 10:58:46;;;;;;;;;;;19.10;65.60;;;;;;4948107;28;20075;-58
2021/09/22 11:01:33;;;;;;;4.57;2.72;;;19.20;64.30;;;;;;4954778;28;19957;-59
2021/09/22 11:04:07;;;;;;;16.60;2.75;;;19.20;63.80;;;;;;4958162;28;20059;-58
2021/09/22 11:09:18;;;;;;;5.80;2.30;;;19.40;64.00;;;;;;4954466;28;20087;-59
2021/09/22 11:11:56;;;;;;;10.60;2.30;;;19.40;66.40;;;;;;4962915;28;20306;-60
2021/09/22 11:14:34;;;;;;;8.75;2.58;;;19.40;64.20;;;;;;4955066;28;20071;-59
2021/09/22 11:17:01;;;;;;;11.95;4.10;;;19.50;64.00;;;;;;4946305;28;20153;-59
2021/09/22 11:19:29;;;;;;;14.93;5.28;;;19.50;65.70;;;;;;4949820;28;20050;-58
2021/09/22 11:21:56;;;;;;;15.32;4.63;;;19.50;65.50;;;;;;4961449;28;20097;-58
2021/09/22 11:24:28;;;;;;;11.05;3.35;;;19.60;65.30;;;;;;4944360;29;20062;-59
2021/09/22 11:26:59;;;;;;;7.07;2.80;;;19.70;63.70;;;;;;4966300;28;20070;-59
2021/09/22 11:29:36;;;;;;;5.95;2.33;;;19.70;63.20;;;;;;4965703;28;20039;-57
2021/09/22 11:32:07;;;;;;;9.95;3.08;;;19.80;64.00;;;;;;4959392;28;20047;-58
2021/09/22 11:34:37;;;;;;;5.70;2.45;;;19.90;64.10;;;;;;4966107;28;20050;-58
2021/09/22 11:37:08;;;;;;;6.68;3.03;;;19.90;63.60;;;;;;4948594;28;20573;-59
2021/09/22 11:39:35;;;;;;;6.00;2.42;;;19.90;62.20;;;;;;4965445;28;20482;-58
2021/09/22 11:42:03;;;;;;;5.53;2.63;;;19.90;63.90;;;;;;4966044;28;20105;-58
2021/09/22 11:44:30;;;;;;;6.10;3.25;;;19.90;64.30;;;;;;4958711;28;20085;-58
2021/09/22 11:46:58;;;;;;;11.05;3.33;;;19.80;64.00;;;;;;4960524;28;20123;-58
2021/09/22 11:49:35;;;;;;;11.00;3.60;;;19.90;63.50;;;;;;4969787;28;20089;-58
2021/09/22 11:52:13;;;;;;;8.57;2.70;;;19.90;63.30;;;;;;4963113;28;20167;-56
2021/09/22 11:54:56;;;;;;;6.13;3.40;;;19.90;64.80;;;;;;4951520;28;20576;-56
2021/09/22 11:57:28;;;;;;;7.55;3.15;;;20.00;64.40;;;;;;4948377;28;20055;-58
2021/09/22 11:59:55;;;;;;;5.10;2.53;;;20.00;65.30;;;;;;4953275;28;20074;-59
2021/09/22 12:02:26;;;;;;;6.28;2.58;;;20.10;64.60;;;;;;4622597;28;10000687;-60
2021/09/22 12:04:56;;;;;;;7.18;2.78;;;20.30;63.10;;;;;;4940638;29;20051;-60
2021/09/22 12:07:30;;;;;;;5.13;2.97;;;20.30;64.70;;;;;;4949166;28;20059;-59
2021/09/22 12:10:01;;;;;;;10.20;3.28;;;20.40;63.30;;;;;;4959543;28;20043;-59
2021/09/22 12:12:31;;;;;;;11.23;3.08;;;20.40;63.70;;;;;;4965245;28;20081;-61
2021/09/22 12:14:59;;;;;;;16.42;2.97;;;20.50;63.10;;;;;;4967664;28;20130;-60
2021/09/22 12:17:30;;;;;;;5.18;2.22;;;20.50;63.20;;;;;;4963039;28;20059;-59
2021/09/22 12:19:59;;;;;;;6.43;2.85;;;20.60;63.40;;;;;;4966934;28;20130;-59
2021/09/22 12:22:34;;;;;;;5.97;2.80;;;20.70;64.10;;;;;;4962375;28;20066;-60
2021/09/22 12:25:01;;;;;;;4.55;2.75;;;20.70;63.40;;;;;;4949248;28;20236;-62
2021/09/22 12:27:29;;;;;;;8.68;3.10;;;20.70;64.60;;;;;;4961989;28;20478;-60
2021/09/22 12:29:57;;;;;;;12.35;3.35;;;20.80;64.20;;;;;;4949168;28;20051;-60
2021/09/22 12:32:25;;;;;;;10.52;3.25;;;20.90;63.40;;;;;;4964962;28;20106;-60
2021/09/22 12:34:52;;;;;;;6.38;3.08;;;20.90;64.00;;;;;;4965200;28;20481;-60
2021/09/22 12:37:22;;;;;;;11.48;4.78;;;21.00;63.10;;;;;;4953938;28;20225;-59
2021/09/22 12:39:56;;;;;;;4.57;2.85;;;21.00;62.90;;;;;;4967431;28;20046;-60
2021/09/22 12:42:23;;;;;;;6.03;2.72;;;21.00;62.50;;;;;;4949577;28;20082;-58
2021/09/22 12:45:01;;;;;;;7.68;3.25;;;21.10;63.10;;;;;;4933910;28;20085;-60
2021/09/22 12:47:29;;;;;;;5.22;2.38;;;21.10;61.70;;;;;;4949324;28;20074;-59
2021/09/22 12:50:04;;;;;;;8.32;2.50;;;21.00;63.70;;;;;;4966682;28;20070;-59
2021/09/22 12:52:31;;;;;;;5.80;2.95;;;21.10;62.30;;;;;;4949095;28;20055;-59
2021/09/22 12:54:58;;;;;;;6.13;2.55;;;21.10;63.40;;;;;;4967119;28;20132;-59